Metar Cercanos

 

LEPA - Palma De Mallorc, Spain
Distance from station: ONO 38km
Actualización: Mon, 22-Jul-2024 7:30am CEST
Despejado
Despejado
 Viento del calm
Viento: Calma
Temperatura: 20°C
Rocío: 16°C
Humedad: 78%
Barómetro: 1017 hPa
Resumen: Despejado
Visibility: greater than 10 km
2024/07/22 05:30 LEPA 220530Z 00000KT CAVOK 20/16 Q1017 NOSIG
LEMH - Mahon/Menorca Is, Spain
Distance from station: ENE 105km
Actualización: Mon, 22-Jul-2024 7:30am CEST
Despejado
Despejado
 Viento del N
Viento: N 9 km/h
Temperatura: 22°C
Rocío: 17°C
Humedad: 73%
Barómetro: 1016 hPa
Resumen: Despejado
Visibility: greater than 10 km
2024/07/22 05:30 LEMH 220530Z 35005KT CAVOK 22/17 Q1016
 
LEIB - Ibiza/Es Codola, Spain
Distance from station: OSO 165km
Actualización: Mon, 22-Jul-2024 7:30am CEST
Few Clouds
Few Clouds
 Viento del NNO
Viento: NNO 7 km/h
Temperatura: 23°C
Rocío: 18°C
Humedad: 74%
Barómetro: 1017 hPa
Clouds: Few Clouds
Visibility: 10 km
Cloud details: Few Clouds 853 m
2024/07/22 05:30 LEIB 220530Z 33004KT 250V360 9999 FEW028 23/18 Q1017 NOSIG
LEBL - Barcelona Airpor, Spain
Distance from station: NNO 225km
Actualización: Mon, 22-Jul-2024 7:30am CEST
Despejado
Despejado
 Viento del NNO
Viento: NNO 26 km/h, Racha: 54 km/h
Temperatura: 21°C
Rocío: 11°C
Humedad: 53%
Barómetro: 1017 hPa
Resumen: Despejado
Visibility: greater than 10 km
2024/07/22 05:30 LEBL 220530Z 33014G29KT CAVOK 21/11 Q1017 NOSIG
 
LEVC - Valencia (civ/Mi, Spain
Distance from station: NO 188km
Actualización: Mon, 22-Jul-2024 7:30am CEST
Despejado
Despejado
 Viento del NO
Viento: NO 6 km/h
Temperatura: 22°C
Rocío: 19°C
Humedad: 83%
Barómetro: 1018 hPa
Resumen: Despejado
Visibility: greater than 10 km
2024/07/22 05:30 LEVC 220530Z 32003KT 280V340 CAVOK 22/19 Q1018 NOSIG
LEGE - Gerona/Costa Bra, Spain
Distance from station: N 276km
Actualización: Mon, 22-Jul-2024 7:30am CEST
Despejado
Despejado
 Viento del calm
Viento: Calma
Temperatura: 17°C
Rocío: 16°C
Humedad: 94%
Barómetro: 1017 hPa
Resumen: Despejado
Visibility: greater than 10 km
2024/07/22 05:30 LEGE 220530Z 00000KT CAVOK 17/16 Q1017 NOSIG
 
LEAL - Alicante/El Alte, Spain
Distance from station: OSO 344km
Actualización: Mon, 22-Jul-2024 7:30am CEST
Parcialmente nuboso
Parcialmente nuboso
 Viento del ESE
Viento: ESE 9 km/h
Temperatura: 25°C
Rocío: 22°C
Humedad: 83%
Barómetro: 1017 hPa
Clouds: Parcialmente nuboso
Visibility: 10 km
Cloud details: Parcialmente nuboso 762 m
Parcialmente nuboso 1829 m
2024/07/22 05:30 LEAL 220530Z 11005KT 070V150 9999 SCT025 SCT060 25/22 Q1017 NOSIG
LEAM - Almeria Airport, Spain
Distance from station: SSO 56km
Actualización: Mon, 22-Jul-2024 7:30am CEST
Few Clouds
Few Clouds
 Viento del NE
Viento: NE 20 km/h
Temperatura: 28°C
Indice Calor: 29°C
Rocío: 20°C
Humedad: 62%
Barómetro: 1016 hPa
Clouds: Few Clouds
Visibility: 10 km
Cloud details: Few Clouds 610 m
2024/07/22 05:30 LEAM 220530Z 05011KT 010V080 9999 FEW020 28/20 Q1016
 
LEZG - Zaragoza (mil/Ci, Spain
Distance from station: NO 431km
Actualización: Mon, 22-Jul-2024 7:30am CEST
Despejado
Despejado
 Viento del O
Viento: O 22 km/h
Temperatura: 16°C
Rocío: 10°C
Humedad: 68%
Barómetro: 1021 hPa
Resumen: Despejado
Visibility: greater than 10 km
2024/07/22 05:30 LEZG 220530Z 27012KT CAVOK 16/10 Q1021 NOSIG
LEMD - Madrid/Barajas, Spain
Distance from station: ONO 234km
Actualización: Mon, 22-Jul-2024 7:30am CEST
Despejado
Despejado
 Viento del varies
Viento: varies 4 km/h
Temperatura: 16°C
Rocío: 6°C
Humedad: 52%
Barómetro: 1021 hPa
Resumen: Despejado
Visibility: greater than 10 km
2024/07/22 05:30 LEMD 220530Z VRB02KT CAVOK 16/06 Q1021 NOSIG
 
LEGR - Granada Airport, Spain
Distance from station: OSO 62km
Actualización: Mon, 22-Jul-2024 7:30am CEST
Despejado
Despejado
 Viento del calm
Viento: Calma
Temperatura: 18°C
Rocío: 10°C
Humedad: 60%
Barómetro: 1018 hPa
Resumen: Despejado
Visibility: greater than 10 km
2024/07/22 05:30 LEGR 220530Z 00000KT CAVOK 18/10 Q1018
LEMG - Malaga (civ/Mil), Spain
Distance from station: OSO 227km
Actualización: Mon, 22-Jul-2024 7:30am CEST
Muy nuboso
Muy nuboso
 Viento del ESE
Viento: ESE 6 km/h
Temperatura: 24°C
Rocío: 21°C
Humedad: 83%
Barómetro: 1016 hPa
Clouds: Muy nuboso
Visibility: 10 km
Cloud details: Muy nuboso 305 m
Muy nuboso 427 m
2024/07/22 05:30 LEMG 220530Z 12003KT 070V170 9999 4500E BKN010 BKN014 24/21 Q1016 NOSIG
 
LEZL - Sevilla (civ/Mil, Spain
Distance from station: S 318km
Actualización: Mon, 22-Jul-2024 7:30am CEST
Despejado
Despejado
 Viento del NE
Viento: NE 6 km/h
Temperatura: 20°C
Rocío: 16°C
Humedad: 78%
Barómetro: 1015 hPa
Resumen: Despejado
Visibility: greater than 10 km
2024/07/22 05:30 LEZL 220530Z 04003KT CAVOK 20/16 Q1015 NOSIG
LEVT - Vitoria, Spain
Distance from station: NO 226km
Actualización: Mon, 22-Jul-2024 7:30am CEST
Few Clouds
Few Clouds
 Viento del calm
Viento: Calma
Temperatura: 9°C
Rocío: 9°C
Humedad: 100%
Barómetro: 1024 hPa
Clouds: Few Clouds
Visibility: 10 km
Cloud details: Few Clouds 610 m
2024/07/22 05:30 LEVT 220530Z 00000KT 9999 FEW020 09/09 Q1024
 
LEBB - Bilbao/Sondica, Spain
Distance from station: NNO 235km
Actualización: Mon, 22-Jul-2024 7:30am CEST
Parcialmente nuboso
Parcialmente nuboso
 Viento del ESE
Viento: ESE 6 km/h
Temperatura: 15°C
Rocío: 14°C
Humedad: 94%
Barómetro: 1023 hPa
Clouds: Parcialmente nuboso
Visibility: 10 km
Cloud details: Parcialmente nuboso 1097 m
2024/07/22 05:30 LEBB 220530Z 12003KT 080V140 9999 SCT036 15/14 Q1023 NOSIG
LESO - San Sebastian/Fu, Spain
Distance from station: N 231km
Actualización: Mon, 22-Jul-2024 7:30am CEST
Parcialmente nuboso
Parcialmente nuboso
 Viento del SSE
Viento: SSE 6 km/h
Temperatura: 16°C
Rocío: 15°C
Humedad: 94%
Barómetro: 1023 hPa
Clouds: Parcialmente nuboso
Visibility: 10 km
Cloud details: Parcialmente nuboso 1341 m
2024/07/22 05:30 LESO 220530Z 15003KT 9999 SCT044 16/15 Q1023
 
LEVD - Valladolid(Mil/C, Spain
Distance from station: ONO 239km
Actualización: Mon, 22-Jul-2024 7:30am CEST
Despejado
Despejado
 Viento del NE
Viento: NE 11 km/h
Temperatura: 11°C
Rocío: 7°C
Humedad: 77%
Barómetro: 1023 hPa
Resumen: Despejado
Visibility: greater than 10 km
2024/07/22 05:30 LEVD 220530Z 05006KT CAVOK 11/07 Q1023 NOSIG
LESA - Salamanca (civ/M, Spain
Distance from station: ONO 349km
Actualización: Mon, 22-Jul-2024 7:30am CEST
Despejado
Despejado
 Viento del NE
Viento: NE 7 km/h
Temperatura: 11°C
Rocío: 7°C
Humedad: 77%
Barómetro: 1022 hPa
Resumen: Despejado
Visibility: greater than 10 km
2024/07/22 05:30 LESA 220530Z 04004KT CAVOK 11/07 Q1022
 
LEXJ - Santander/Paraya, Spain
Distance from station: NNO 247km
Actualización: Mon, 22-Jul-2024 7:30am CEST
Despejado
Despejado
 Viento del varies
Viento: varies 4 km/h
Temperatura: 14°C
Rocío: 12°C
Humedad: 88%
Barómetro: 1023 hPa
Resumen: Despejado
Visibility: greater than 10 km
2024/07/22 05:30 LEXJ 220530Z VRB02KT CAVOK 14/12 Q1023
LEAS - Asturias/Aviles, Spain
Distance from station: NO 214km
Actualización: Mon, 22-Jul-2024 7:30am CEST
Despejado
Despejado
 Viento del varies
Viento: varies 2 km/h
Temperatura: 14°C
Rocío: 13°C
Humedad: 94%
Barómetro: 1022 hPa
Resumen: Despejado
Visibility: greater than 10 km
2024/07/22 05:30 LEAS 220530Z VRB01KT CAVOK 14/13 Q1022 NOSIG
 
LECO - La Coruna/Alvedr, Spain
Distance from station: ONO 222km
Actualización: Mon, 22-Jul-2024 7:30am CEST
Despejado
Despejado
 Viento del S
Viento: S 4 km/h
Temperatura: 12°C
Rocío: 11°C
Humedad: 94%
Barómetro: 1021 hPa
Resumen: Despejado
Visibility: greater than 10 km
2024/07/22 05:30 LECO 220530Z 19002KT CAVOK 12/11 Q1021 NOSIG
LEVX - Vigo/Peinador, Spain
Distance from station: O 214km
Actualización: Mon, 22-Jul-2024 7:30am CEST
Despejado
Despejado
 Viento del SO
Viento: SO 9 km/h
Temperatura: 14°C
Rocío: 12°C
Humedad: 88%
Barómetro: 1018 hPa
Resumen: Despejado
Visibility: greater than 10 km
2024/07/22 05:30 LEVX 220530Z 22005KT 180V270 CAVOK 14/12 Q1018 NOSIG